sensor_id;sensor_type;location;lat;lon;timestamp;temperature;humidity
41080;DHT22;26826;50.718;7.114;2022-08-21T00:01:35;18.50;99.90
41080;DHT22;26826;50.718;7.114;2022-08-21T00:11:38;18.50;99.90
41080;DHT22;26826;50.718;7.114;2022-08-21T00:21:39;18.40;99.90
41080;DHT22;26826;50.718;7.114;2022-08-21T00:31:40;18.20;99.90
41080;DHT22;26826;50.718;7.114;2022-08-21T00:41:42;18.10;99.90
41080;DHT22;26826;50.718;7.114;2022-08-21T00:51:51;18.00;99.90
41080;DHT22;26826;50.718;7.114;2022-08-21T01:01:54;17.70;99.90
41080;DHT22;26826;50.718;7.114;2022-08-21T01:11:54;17.50;99.90
41080;DHT22;26826;50.718;7.114;2022-08-21T01:21:55;17.20;99.90
41080;DHT22;26826;50.718;7.114;2022-08-21T01:31:56;17.10;99.90
41080;DHT22;26826;50.718;7.114;2022-08-21T01:41:56;17.10;99.90
41080;DHT22;26826;50.718;7.114;2022-08-21T01:51:57;17.00;99.90
41080;DHT22;26826;50.718;7.114;2022-08-21T02:01:58;16.70;99.90
41080;DHT22;26826;50.718;7.114;2022-08-21T02:11:58;16.70;99.90
41080;DHT22;26826;50.718;7.114;2022-08-21T02:21:59;16.40;99.90
41080;DHT22;26826;50.718;7.114;2022-08-21T02:32:00;16.30;99.90
41080;DHT22;26826;50.718;7.114;2022-08-21T02:42:00;16.20;99.90
41080;DHT22;26826;50.718;7.114;2022-08-21T02:52:01;16.10;99.90
41080;DHT22;26826;50.718;7.114;2022-08-21T03:02:02;15.90;99.90
41080;DHT22;26826;50.718;7.114;2022-08-21T03:12:02;15.80;99.90
41080;DHT22;26826;50.718;7.114;2022-08-21T03:22:03;15.80;99.90
41080;DHT22;26826;50.718;7.114;2022-08-21T03:32:04;15.80;99.90
41080;DHT22;26826;50.718;7.114;2022-08-21T03:42:05;15.70;99.90
41080;DHT22;26826;50.718;7.114;2022-08-21T03:52:07;15.60;99.90
41080;DHT22;26826;50.718;7.114;2022-08-21T04:02:07;15.40;99.90
41080;DHT22;26826;50.718;7.114;2022-08-21T04:12:08;15.30;99.90
41080;DHT22;26826;50.718;7.114;2022-08-21T04:22:09;15.30;99.90
41080;DHT22;26826;50.718;7.114;2022-08-21T04:32:09;15.20;99.90
41080;DHT22;26826;50.718;7.114;2022-08-21T04:42:10;15.20;99.90
41080;DHT22;26826;50.718;7.114;2022-08-21T04:52:12;15.10;99.90
41080;DHT22;26826;50.718;7.114;2022-08-21T05:02:14;15.10;99.90
41080;DHT22;26826;50.718;7.114;2022-08-21T05:12:14;15.20;99.90
41080;DHT22;26826;50.718;7.114;2022-08-21T05:22:22;15.20;99.90
41080;DHT22;26826;50.718;7.114;2022-08-21T05:32:24;15.40;99.90
41080;DHT22;26826;50.718;7.114;2022-08-21T05:42:25;15.30;99.90
41080;DHT22;26826;50.718;7.114;2022-08-21T05:52:26;15.50;99.90
41080;DHT22;26826;50.718;7.114;2022-08-21T06:02:26;15.80;99.90
41080;DHT22;26826;50.718;7.114;2022-08-21T06:12:27;16.40;99.90
41080;DHT22;26826;50.718;7.114;2022-08-21T06:22:27;16.80;99.90
41080;DHT22;26826;50.718;7.114;2022-08-21T06:32:29;17.30;99.90
41080;DHT22;26826;50.718;7.114;2022-08-21T06:42:29;17.60;99.90
41080;DHT22;26826;50.718;7.114;2022-08-21T06:52:30;18.30;99.90
41080;DHT22;26826;50.718;7.114;2022-08-21T07:02:32;18.30;99.90
41080;DHT22;26826;50.718;7.114;2022-08-21T07:12:34;19.10;99.90
41080;DHT22;26826;50.718;7.114;2022-08-21T07:22:58;19.20;99.90
41080;DHT22;26826;50.718;7.114;2022-08-21T07:33:01;20.20;99.90
41080;DHT22;26826;50.718;7.114;2022-08-21T07:43:01;21.10;99.90
41080;DHT22;26826;50.718;7.114;2022-08-21T07:53:03;21.60;99.90
41080;DHT22;26826;50.718;7.114;2022-08-21T08:03:04;22.70;99.90
41080;DHT22;26826;50.718;7.114;2022-08-21T08:13:05;23.60;99.90
41080;DHT22;26826;50.718;7.114;2022-08-21T08:23:05;24.20;99.90
41080;DHT22;26826;50.718;7.114;2022-08-21T08:33:06;24.60;99.90
41080;DHT22;26826;50.718;7.114;2022-08-21T08:43:07;25.20;97.90
41080;DHT22;26826;50.718;7.114;2022-08-21T09:03:22;26.40;96.10
41080;DHT22;26826;50.718;7.114;2022-08-21T09:34:03;27.60;94.70
41080;DHT22;26826;50.718;7.114;2022-08-21T09:44:05;29.30;93.00
41080;DHT22;26826;50.718;7.114;2022-08-21T10:04:08;30.40;90.20
41080;DHT22;26826;50.718;7.114;2022-08-21T10:24:43;29.90;86.10
41080;DHT22;26826;50.718;7.114;2022-08-21T10:35:13;30.20;84.90
41080;DHT22;26826;50.718;7.114;2022-08-21T10:45:32;30.40;80.30
41080;DHT22;26826;50.718;7.114;2022-08-21T10:55:44;31.00;79.00
41080;DHT22;26826;50.718;7.114;2022-08-21T11:05:51;31.60;77.40
41080;DHT22;26826;50.718;7.114;2022-08-21T11:26:45;31.50;76.90
41080;DHT22;26826;50.718;7.114;2022-08-21T11:37:06;32.70;73.70
41080;DHT22;26826;50.718;7.114;2022-08-21T11:47:12;32.30;73.10
41080;DHT22;26826;50.718;7.114;2022-08-21T11:57:23;32.60;73.20
41080;DHT22;26826;50.718;7.114;2022-08-21T12:07:40;31.30;72.70
41080;DHT22;26826;50.718;7.114;2022-08-21T12:28:06;33.60;70.70
41080;DHT22;26826;50.718;7.114;2022-08-21T12:38:27;33.70;70.80
41080;DHT22;26826;50.718;7.114;2022-08-21T12:48:39;35.30;68.30
41080;DHT22;26826;50.718;7.114;2022-08-21T12:58:52;35.50;67.10
41080;DHT22;26826;50.718;7.114;2022-08-21T13:08:58;35.80;65.40
41080;DHT22;26826;50.718;7.114;2022-08-21T13:19:04;34.10;66.10
41080;DHT22;26826;50.718;7.114;2022-08-21T13:29:11;33.60;65.70
41080;DHT22;26826;50.718;7.114;2022-08-21T13:39:16;33.30;66.10
41080;DHT22;26826;50.718;7.114;2022-08-21T13:49:19;32.00;67.10
41080;DHT22;26826;50.718;7.114;2022-08-21T13:59:32;31.80;68.10
41080;DHT22;26826;50.718;7.114;2022-08-21T14:09:41;31.90;67.20
41080;DHT22;26826;50.718;7.114;2022-08-21T14:19:45;30.50;69.80
41080;DHT22;26826;50.718;7.114;2022-08-21T14:29:47;30.80;69.90
41080;DHT22;26826;50.718;7.114;2022-08-21T14:39:47;31.00;69.90
41080;DHT22;26826;50.718;7.114;2022-08-21T14:49:48;31.40;69.00
41080;DHT22;26826;50.718;7.114;2022-08-21T14:59:49;31.00;69.20
41080;DHT22;26826;50.718;7.114;2022-08-21T15:09:49;30.40;71.00
41080;DHT22;26826;50.718;7.114;2022-08-21T15:19:50;29.70;72.10
41080;DHT22;26826;50.718;7.114;2022-08-21T15:29:50;29.50;72.40
41080;DHT22;26826;50.718;7.114;2022-08-21T15:39:53;28.90;73.60
41080;DHT22;26826;50.718;7.114;2022-08-21T15:49:54;28.40;74.00
41080;DHT22;26826;50.718;7.114;2022-08-21T16:00:03;27.90;75.30
41080;DHT22;26826;50.718;7.114;2022-08-21T16:10:12;27.50;75.20
41080;DHT22;26826;50.718;7.114;2022-08-21T16:20:17;27.30;74.90
41080;DHT22;26826;50.718;7.114;2022-08-21T16:30:19;27.00;75.50
41080;DHT22;26826;50.718;7.114;2022-08-21T16:40:21;26.60;76.00
41080;DHT22;26826;50.718;7.114;2022-08-21T16:50:26;26.50;76.60
41080;DHT22;26826;50.718;7.114;2022-08-21T17:00:26;26.20;76.80
41080;DHT22;26826;50.718;7.114;2022-08-21T17:10:27;26.00;76.70
41080;DHT22;26826;50.718;7.114;2022-08-21T17:20:28;25.70;77.20
41080;DHT22;26826;50.718;7.114;2022-08-21T17:30:28;25.60;77.60
41080;DHT22;26826;50.718;7.114;2022-08-21T17:40:29;25.40;77.10
41080;DHT22;26826;50.718;7.114;2022-08-21T17:50:30;25.20;76.20
41080;DHT22;26826;50.718;7.114;2022-08-21T18:00:31;25.00;76.10
41080;DHT22;26826;50.718;7.114;2022-08-21T18:10:31;24.80;76.70
41080;DHT22;26826;50.718;7.114;2022-08-21T18:20:32;24.70;77.20
41080;DHT22;26826;50.718;7.114;2022-08-21T18:30:37;24.30;77.50
41080;DHT22;26826;50.718;7.114;2022-08-21T18:50:43;23.80;79.30
41080;DHT22;26826;50.718;7.114;2022-08-21T19:00:48;23.50;79.90
41080;DHT22;26826;50.718;7.114;2022-08-21T19:10:50;23.20;81.10
41080;DHT22;26826;50.718;7.114;2022-08-21T19:20:55;22.90;82.30
41080;DHT22;26826;50.718;7.114;2022-08-21T19:31:14;22.90;83.20
41080;DHT22;26826;50.718;7.114;2022-08-21T19:41:17;22.70;83.80
41080;DHT22;26826;50.718;7.114;2022-08-21T19:51:19;22.50;84.80
41080;DHT22;26826;50.718;7.114;2022-08-21T20:01:21;22.30;85.60
41080;DHT22;26826;50.718;7.114;2022-08-21T20:11:32;22.20;86.50
41080;DHT22;26826;50.718;7.114;2022-08-21T20:21:37;22.00;87.00
41080;DHT22;26826;50.718;7.114;2022-08-21T20:31:38;21.90;88.00
41080;DHT22;26826;50.718;7.114;2022-08-21T20:41:39;21.80;88.00
41080;DHT22;26826;50.718;7.114;2022-08-21T20:51:43;21.80;88.30
41080;DHT22;26826;50.718;7.114;2022-08-21T21:01:46;21.70;88.70
41080;DHT22;26826;50.718;7.114;2022-08-21T21:11:56;21.60;89.50
41080;DHT22;26826;50.718;7.114;2022-08-21T21:22:14;21.60;89.60
41080;DHT22;26826;50.718;7.114;2022-08-21T21:32:16;21.50;90.30
41080;DHT22;26826;50.718;7.114;2022-08-21T21:42:27;21.40;90.70
41080;DHT22;26826;50.718;7.114;2022-08-21T21:52:43;21.50;90.90
41080;DHT22;26826;50.718;7.114;2022-08-21T22:03:07;21.40;91.30
41080;DHT22;26826;50.718;7.114;2022-08-21T22:13:30;21.20;91.90
41080;DHT22;26826;50.718;7.114;2022-08-21T22:23:35;21.20;92.30
41080;DHT22;26826;50.718;7.114;2022-08-21T22:33:38;21.20;93.00
41080;DHT22;26826;50.718;7.114;2022-08-21T22:43:56;21.00;93.50
41080;DHT22;26826;50.718;7.114;2022-08-21T22:53:57;20.90;94.00
41080;DHT22;26826;50.718;7.114;2022-08-21T23:04:13;20.80;94.30
41080;DHT22;26826;50.718;7.114;2022-08-21T23:14:15;20.70;94.80
41080;DHT22;26826;50.718;7.114;2022-08-21T23:44:48;20.30;97.10
